Time;durP1;ratioP1;P1;durP2;ratioP2;P2;SDS_P1;SDS_P2;PMS_P1;PMS_P2;Temp;Humidity;BMP_temperature;BMP_pressure;BME280_temperature;BME280_humidity;BME280_pressure;Samples;Min_cycle;Max_cycle;Signal;HPM_P1;HPM_P2
2022/03/02 16:04:39;;;;;;;18.23;10.57;;;;;;;6.81;57.52;96678.25;5041614;28;20061;-56
2022/03/02 16:07:07;;;;;;;15.10;10.63;;;;;;;6.82;57.73;96674.69;5036422;28;20516;-62
2022/03/02 16:09:34;;;;;;;15.15;10.32;;;;;;;6.76;59.29;96670.75;4913378;28;3462977;-63
2022/03/02 16:12:03;;;;;;;16.50;11.25;;;;;;;6.76;61.05;96672.53;5038387;28;20061;-61
2022/03/02 16:14:53;;;;;;;17.50;11.57;;;;;;;6.68;65.09;96670.50;5036698;28;20537;-61
2022/03/02 16:17:22;;;;;;;15.18;11.10;;;;;;;6.64;63.27;96664.66;5024037;28;20081;-61
2022/03/02 16:19:52;;;;;;;16.25;10.20;;;;;;;6.45;62.44;96663.53;5027786;28;20469;-61
2022/03/02 16:22:23;;;;;;;14.88;10.43;;;;;;;6.44;62.24;96654.84;5020921;28;20073;-62
2022/03/02 16:24:51;;;;;;;17.27;10.60;;;;;;;6.29;62.79;96659.41;5025006;28;20073;-60
2022/03/02 16:27:22;;;;;;;19.15;10.60;;;;;;;6.36;63.11;96660.63;5022709;28;20068;-62
2022/03/02 16:29:53;;;;;;;13.15;10.52;;;;;;;6.25;63.39;96652.72;5035881;28;20457;-62
2022/03/02 16:32:22;;;;;;;13.30;10.30;;;;;;;6.19;63.80;96650.56;5019274;28;20077;-61
2022/03/02 16:34:52;;;;;;;15.45;10.63;;;;;;;5.96;64.14;96648.81;5037641;28;20459;-63
2022/03/02 16:37:21;;;;;;;16.90;11.15;;;;;;;5.91;65.81;96655.16;5025544;28;20069;-58
2022/03/02 16:39:49;;;;;;;16.52;11.73;;;;;;;5.91;68.13;96662.19;5024777;28;20062;-56
2022/03/02 16:42:18;;;;;;;16.08;11.18;;;;;;;5.83;69.84;96662.72;5033716;28;20075;-54
2022/03/02 16:44:46;;;;;;;14.38;11.40;;;;;;;5.84;69.63;96659.16;5037382;28;20069;-60
2022/03/02 16:47:15;;;;;;;17.25;11.85;;;;;;;5.79;71.10;96655.22;5029682;28;20121;-62
2022/03/02 16:49:46;;;;;;;17.00;11.32;;;;;;;5.82;72.61;96655.00;5026184;28;20077;-62
2022/03/02 16:52:16;;;;;;;16.45;10.93;;;;;;;5.63;74.87;96661.53;5025072;28;20037;-61
2022/03/02 16:54:45;;;;;;;15.95;11.48;;;;;;;5.49;76.17;96669.53;5025615;28;20450;-62
2022/03/02 16:57:13;;;;;;;25.30;12.63;;;;;;;5.40;77.89;96663.19;5032439;28;20077;-61
2022/03/02 16:59:42;;;;;;;15.57;11.27;;;;;;;5.28;77.16;96669.25;5040901;28;20080;-61
2022/03/02 17:02:10;;;;;;;18.27;11.43;;;;;;;5.28;77.69;96665.81;5030992;28;20125;-63
2022/03/02 17:04:39;;;;;;;13.57;10.30;;;;;;;5.28;77.41;96671.88;5045827;28;20072;-62
2022/03/02 17:07:07;;;;;;;15.18;9.55;;;;;;;5.30;77.22;96669.13;5032481;28;20072;-61
2022/03/02 17:09:37;;;;;;;17.08;11.10;;;;;;;5.31;76.89;96687.34;5030255;28;20060;-61
2022/03/02 17:12:06;;;;;;;15.88;11.65;;;;;;;5.34;76.07;96694.97;5044505;28;20075;-62
2022/03/02 17:14:35;;;;;;;17.25;10.95;;;;;;;5.35;77.00;96688.81;5044069;28;20076;-61
2022/03/02 17:17:04;;;;;;;15.63;11.57;;;;;;;5.28;80.62;96684.09;5026388;28;20079;-61
2022/03/02 17:19:32;;;;;;;20.15;11.65;;;;;;;5.03;85.03;96687.59;5018313;28;20056;-61
2022/03/02 17:22:01;;;;;;;18.30;12.93;;;;;;;5.14;91.22;96687.69;5012051;28;20053;-62
2022/03/02 17:24:29;;;;;;;19.77;13.48;;;;;;;5.13;89.74;96688.63;5002364;28;20091;-61
2022/03/02 17:27:00;;;;;;;24.20;15.80;;;;;;;5.13;86.39;96688.63;5020583;28;20508;-61
2022/03/02 17:29:28;;;;;;;23.55;13.30;;;;;;;5.05;90.51;96685.69;5018341;28;20076;-61
2022/03/02 17:31:56;;;;;;;16.92;12.95;;;;;;;4.93;97.35;96689.97;5046395;28;20084;-61
2022/03/02 17:34:25;;;;;;;16.85;12.13;;;;;;;4.85;100.00;96684.41;5029800;28;20061;-61
2022/03/02 17:36:53;;;;;;;17.67;12.77;;;;;;;4.73;100.00;96686.94;5025093;28;20069;-60
2022/03/02 17:39:21;;;;;;;15.23;11.75;;;;;;;4.66;100.00;96684.84;5021968;28;20080;-62
2022/03/02 17:41:51;;;;;;;16.60;12.25;;;;;;;4.52;100.00;96689.19;5020070;28;20472;-62
2022/03/02 17:44:20;;;;;;;16.75;11.73;;;;;;;4.41;100.00;96696.91;5024337;28;20079;-61
2022/03/02 17:46:49;;;;;;;17.15;11.05;;;;;;;4.40;94.74;96704.84;5020838;28;20038;-61
2022/03/02 17:49:17;;;;;;;14.35;9.93;;;;;;;4.42;90.35;96695.97;5020583;28;20061;-61
2022/03/02 17:51:46;;;;;;;16.85;11.30;;;;;;;4.37;90.48;96692.84;5023673;28;20151;-61
2022/03/02 17:54:16;;;;;;;16.35;10.63;;;;;;;4.33;93.77;96701.78;5026338;28;20069;-61
2022/03/02 17:56:46;;;;;;;15.85;11.50;;;;;;;4.14;100.00;96693.50;5022486;28;20139;-61
2022/03/02 17:59:15;;;;;;;16.88;10.90;;;;;;;3.80;100.00;96693.88;5043943;28;20069;-61
2022/03/02 18:01:45;;;;;;;16.17;11.18;;;;;;;3.84;100.00;96685.84;5021068;28;20065;-62
2022/03/02 18:04:14;;;;;;;16.10;11.00;;;;;;;3.85;100.00;96685.75;5032321;28;20468;-61
2022/03/02 18:06:42;;;;;;;14.32;10.60;;;;;;;3.82;100.00;96678.13;5024008;28;20076;-61
2022/03/02 18:09:11;;;;;;;13.65;10.30;;;;;;;3.70;100.00;96677.13;5037447;28;20061;-61
2022/03/02 18:11:39;;;;;;;15.63;11.40;;;;;;;3.63;100.00;96683.66;5036277;28;20088;-60
2022/03/02 18:14:09;;;;;;;16.95;11.02;;;;;;;3.61;100.00;96684.69;5044636;28;20033;-62
2022/03/02 18:16:39;;;;;;;15.80;11.35;;;;;;;3.53;100.00;96674.75;5022450;28;20049;-62
2022/03/02 18:19:10;;;;;;;16.90;11.10;;;;;;;3.32;100.00;96669.09;5021411;28;20068;-61
2022/03/02 18:21:39;;;;;;;16.02;11.65;;;;;;;3.30;100.00;96668.34;5011462;28;20101;-61
2022/03/02 18:24:09;;;;;;;18.00;11.15;;;;;;;3.37;100.00;96672.25;5017662;28;20069;-60
2022/03/02 18:26:38;;;;;;;41.78;25.88;;;;;;;3.41;100.00;96671.16;5023224;28;20073;-64
2022/03/02 18:29:07;;;;;;;15.95;11.48;;;;;;;3.30;100.00;96673.56;5028536;28;20547;-64
2022/03/02 18:31:36;;;;;;;18.85;11.10;;;;;;;3.29;100.00;96674.50;5032595;28;20053;-54
2022/03/02 18:34:04;;;;;;;17.33;12.35;;;;;;;3.24;100.00;96668.75;5022981;28;20076;-59
2022/03/02 18:36:34;;;;;;;17.77;11.32;;;;;;;3.26;100.00;96672.06;5019757;28;20068;-59
2022/03/02 18:39:05;;;;;;;19.98;12.27;;;;;;;3.01;100.00;96663.16;5027094;28;20068;-57
2022/03/02 18:41:33;;;;;;;;;;;;;;;3.12;100.00;96659.06;5037595;28;20096;-59
2022/03/02 18:44:01;;;;;;;22.77;14.40;;;;;;;3.16;100.00;96661.38;5037292;28;19955;-59
2022/03/02 18:46:30;;;;;;;17.17;12.15;;;;;;;2.89;100.00;96669.13;5026337;28;20061;-59
2022/03/02 18:48:58;;;;;;;17.17;11.50;;;;;;;2.74;100.00;96660.44;5019775;28;20072;-59
2022/03/02 18:51:27;;;;;;;20.58;11.82;;;;;;;2.80;100.00;96662.69;5013838;28;20065;-59
2022/03/02 18:53:58;;;;;;;25.77;13.93;;;;;;;2.87;100.00;96655.34;5020757;28;20092;-58
2022/03/02 18:56:28;;;;;;;25.52;16.58;;;;;;;2.87;100.00;96647.53;5015738;28;20433;-56
2022/03/02 18:58:57;;;;;;;25.17;15.53;;;;;;;2.78;100.00;96653.28;5026301;28;20538;-59
2022/03/02 19:01:26;;;;;;;23.83;13.85;;;;;;;2.76;100.00;96650.78;5019885;28;20073;-59
2022/03/02 19:03:55;;;;;;;22.02;15.25;;;;;;;2.77;100.00;96654.22;5014982;28;20061;-58
2022/03/02 19:06:24;;;;;;;24.10;14.02;;;;;;;2.73;100.00;96656.19;5022579;28;20068;-58
2022/03/02 19:08:52;;;;;;;27.10;14.57;;;;;;;2.18;100.00;96650.78;5022241;28;20061;-59
2022/03/02 19:11:22;;;;;;;25.98;16.48;;;;;;;2.12;100.00;96650.19;5043068;28;20068;-58
2022/03/02 19:13:51;;;;;;;26.48;16.30;;;;;;;2.63;100.00;96651.59;5033456;28;20252;-55
2022/03/02 19:16:19;;;;;;;25.67;16.20;;;;;;;2.72;100.00;96649.31;5033031;28;20065;-58
2022/03/02 19:18:47;;;;;;;21.73;12.18;;;;;;;2.40;100.00;96648.59;5037262;28;20419;-58
2022/03/02 19:21:18;;;;;;;18.42;12.82;;;;;;;1.94;100.00;96659.06;5036972;28;20065;-59
2022/03/02 19:23:47;;;;;;;24.90;13.38;;;;;;;1.30;100.00;96665.19;5034568;28;20087;-60
2022/03/02 19:26:16;;;;;;;16.63;12.40;;;;;;;1.36;100.00;96664.88;5033341;28;20088;-58
2022/03/02 19:28:47;;;;;;;19.75;12.60;;;;;;;1.48;100.00;96665.94;5033359;28;20080;-59
2022/03/02 19:31:15;;;;;;;;;;;;;;;1.47;100.00;96659.09;5020793;28;20192;-58
2022/03/02 19:33:44;;;;;;;16.27;11.68;;;;;;;1.32;100.00;96653.81;5022281;28;19956;-57
2022/03/02 19:36:13;;;;;;;18.55;13.10;;;;;;;1.55;100.00;96659.50;5027304;28;20520;-60
2022/03/02 19:41:27;;;;;;;21.52;12.98;;;;;;;1.52;100.00;96657.94;5031380;28;20076;-58
2022/03/02 19:43:57;;;;;;;20.88;13.10;;;;;;;1.55;100.00;96652.56;5040635;28;20084;-60
2022/03/02 19:46:25;;;;;;;20.43;12.60;;;;;;;1.24;100.00;96656.00;5031319;28;20069;-61
2022/03/02 19:48:54;;;;;;;22.20;13.95;;;;;;;1.04;100.00;96662.25;5027712;28;20436;-59
2022/03/02 19:51:23;;;;;;;20.15;12.98;;;;;;;1.24;100.00;96652.53;5024404;28;20073;-58
2022/03/02 19:53:52;;;;;;;23.60;13.38;;;;;;;1.40;100.00;96656.81;5020524;28;20473;-59
2022/03/02 19:56:21;;;;;;;25.67;13.27;;;;;;;1.45;100.00;96656.59;5014768;28;20073;-60
2022/03/02 19:58:51;;;;;;;20.15;14.15;;;;;;;1.49;100.00;96649.47;5037487;28;21389;-61
2022/03/02 20:01:21;;;;;;;21.15;13.60;;;;;;;1.54;100.00;96647.44;5022768;28;20069;-61
2022/03/02 20:03:51;;;;;;;23.52;14.20;;;;;;;1.47;100.00;96644.34;5019491;28;20068;-58
2022/03/02 20:06:20;;;;;;;20.08;13.48;;;;;;;1.57;100.00;96644.66;5021212;28;20076;-61
2022/03/02 20:08:48;;;;;;;22.45;14.38;;;;;;;1.37;100.00;96643.16;5015819;28;20113;-62
2022/03/02 20:11:16;;;;;;;19.85;13.38;;;;;;;1.33;100.00;96649.44;5023274;28;20104;-61
2022/03/02 20:13:45;;;;;;;24.13;15.23;;;;;;;1.41;100.00;96647.25;5034745;28;20080;-60
2022/03/02 20:16:13;;;;;;;19.40;12.48;;;;;;;0.92;100.00;96644.72;5034984;28;20073;-57
2022/03/02 20:18:43;;;;;;;21.85;13.55;;;;;;;1.01;100.00;96653.78;5026355;28;20743;-61
2022/03/02 20:21:12;;;;;;;19.45;13.35;;;;;;;0.77;100.00;96659.34;5025000;28;20068;-60
2022/03/02 20:23:40;;;;;;;20.63;13.88;;;;;;;1.00;100.00;96650.34;5037706;28;20089;-62
2022/03/02 20:26:08;;;;;;;21.20;12.85;;;;;;;0.72;100.00;96653.53;5038814;28;20076;-62
2022/03/02 20:28:37;;;;;;;19.20;12.23;;;;;;;0.74;100.00;96664.69;5034670;28;20140;-59
2022/03/02 20:31:05;;;;;;;24.00;13.50;;;;;;;0.76;100.00;96665.47;5024791;28;20069;-59
2022/03/02 20:33:33;;;;;;;20.55;14.25;;;;;;;0.78;100.00;96665.38;5017023;28;20069;-60
2022/03/02 20:36:03;;;;;;;20.42;13.38;;;;;;;0.81;100.00;96657.41;5020035;28;20076;-60
2022/03/02 20:38:31;;;;;;;27.50;17.17;;;;;;;0.77;100.00;96654.16;5023336;28;20069;-58
2022/03/02 20:40:59;;;;;;;32.65;19.88;;;;;;;0.82;100.00;96659.09;5041337;28;20085;-60
2022/03/02 20:43:28;;;;;;;26.85;16.88;;;;;;;0.82;100.00;96653.91;5035328;28;20072;-62
2022/03/02 20:45:56;;;;;;;21.98;14.88;;;;;;;0.72;100.00;96650.94;5036657;28;20065;-61
2022/03/02 20:48:24;;;;;;;24.80;15.23;;;;;;;0.71;100.00;96651.84;5034531;28;20069;-62
2022/03/02 20:50:54;;;;;;;24.63;15.38;;;;;;;0.81;100.00;96649.63;5021047;28;20080;-58
2022/03/02 20:53:24;;;;;;;29.02;15.27;;;;;;;0.80;100.00;96654.00;5022567;28;20090;-59
2022/03/02 20:55:52;;;;;;;25.88;14.55;;;;;;;0.75;100.00;96649.94;5017667;28;20969;-61
2022/03/02 20:58:21;;;;;;;21.85;14.85;;;;;;;0.40;100.00;96655.19;5036097;28;20064;-62
2022/03/02 21:00:52;;;;;;;20.48;14.65;;;;;;;0.15;100.00;96648.66;5035433;28;20069;-60
2022/03/02 21:03:21;;;;;;;20.80;13.38;;;;;;;0.19;100.00;96655.34;5038894;28;20061;-61
2022/03/02 21:05:53;;;;;;;26.00;14.10;;;;;;;0.16;100.00;96658.09;5034317;28;20065;-59
2022/03/02 21:08:24;;;;;;;;;;;;;;;0.16;100.00;96652.91;5021998;28;20081;-61
2022/03/02 21:10:53;;;;;;;18.63;13.27;;;;;;;-0.03;100.00;96655.59;5019681;28;20590;-61
2022/03/02 21:13:21;;;;;;;22.17;14.60;;;;;;;-0.37;100.00;96652.94;5020547;28;20484;-61
2022/03/02 21:15:49;;;;;;;25.00;15.75;;;;;;;-0.43;100.00;96646.28;5028238;28;20646;-61
2022/03/02 21:18:18;;;;;;;27.50;16.98;;;;;;;-0.36;100.00;96646.84;5032930;28;20089;-59
2022/03/02 21:20:47;;;;;;;30.85;16.67;;;;;;;-0.15;100.00;96650.16;5025279;28;20088;-60
2022/03/02 21:23:17;;;;;;;32.47;18.00;;;;;;;-0.12;100.00;96650.00;5041307;28;20532;-61
2022/03/02 21:25:47;;;;;;;34.20;20.13;;;;;;;-0.09;100.00;96649.84;5022717;28;20069;-59
2022/03/02 21:28:16;;;;;;;35.28;20.45;;;;;;;-0.11;100.00;96647.31;5021238;28;20496;-62
2022/03/02 21:30:45;;;;;;;30.75;19.45;;;;;;;-0.12;100.00;96650.84;5018247;28;20072;-58
2022/03/02 21:33:13;;;;;;;33.92;17.63;;;;;;;-0.22;100.00;96653.94;5020673;28;20076;-59
2022/03/02 21:35:41;;;;;;;29.38;17.73;;;;;;;-0.21;100.00;96656.44;5018217;28;20077;-59
2022/03/02 21:38:13;;;;;;;28.90;18.13;;;;;;;-0.17;100.00;96652.81;5043304;28;20091;-58
2022/03/02 21:40:42;;;;;;;31.02;18.20;;;;;;;-0.22;100.00;96648.78;5038162;28;20069;-58
2022/03/02 21:43:11;;;;;;;29.92;18.02;;;;;;;-0.15;100.00;96652.75;5036965;28;20073;-59
2022/03/02 21:45:39;;;;;;;27.13;16.17;;;;;;;-0.45;100.00;96655.88;5037463;28;20079;-60
2022/03/02 21:48:08;;;;;;;23.50;15.80;;;;;;;-0.70;100.00;96647.59;5031361;28;20073;-59
2022/03/02 21:50:36;;;;;;;26.00;14.27;;;;;;;-0.70;100.00;96648.41;5021204;28;20492;-60
2022/03/02 21:53:04;;;;;;;19.15;12.95;;;;;;;-0.80;100.00;96658.34;5042664;28;20083;-60
2022/03/02 21:55:32;;;;;;;18.35;13.30;;;;;;;-1.06;100.00;96656.13;5033726;28;20136;-60
2022/03/02 21:58:01;;;;;;;20.80;13.27;;;;;;;-1.11;100.00;96658.06;5027278;28;20160;-60
2022/03/02 22:00:31;;;;;;;22.73;13.93;;;;;;;-1.01;100.00;96664.50;5025969;28;20068;-58
2022/03/02 22:03:00;;;;;;;20.05;13.48;;;;;;;-1.04;100.00;96664.66;5035409;28;20082;-60
2022/03/02 22:05:28;;;;;;;22.40;13.13;;;;;;;-0.93;100.00;96661.56;5020265;28;20083;-60
2022/03/02 22:07:56;;;;;;;21.63;14.10;;;;;;;-0.94;100.00;96662.50;5042603;28;20077;-57
2022/03/02 22:10:25;;;;;;;22.17;13.77;;;;;;;-0.90;100.00;96662.28;5036707;28;20064;-57
2022/03/02 22:12:54;;;;;;;19.05;13.07;;;;;;;-0.91;100.00;96665.78;5027202;28;20060;-54
2022/03/02 22:15:22;;;;;;;22.25;13.90;;;;;;;-0.78;100.00;96661.72;5020936;28;20480;-60
2022/03/02 22:17:54;;;;;;;25.33;14.88;;;;;;;-0.80;100.00;96665.28;5025107;28;20069;-56
2022/03/02 22:20:22;;;;;;;19.30;13.63;;;;;;;-0.77;100.00;96660.81;5023279;28;20081;-58
2022/03/02 22:22:50;;;;;;;25.17;14.93;;;;;;;-0.81;100.00;96669.63;5017042;28;20065;-59
2022/03/02 22:25:18;;;;;;;20.75;13.90;;;;;;;-1.06;100.00;96662.13;5033408;28;20068;-59
2022/03/02 22:27:46;;;;;;;22.48;13.98;;;;;;;-1.10;100.00;96660.59;5028016;28;20049;-57
2022/03/02 22:30:15;;;;;;;21.95;14.70;;;;;;;-0.98;100.00;96660.03;5024816;28;20081;-57
2022/03/02 22:32:43;;;;;;;25.63;14.80;;;;;;;-1.18;100.00;96661.84;5034806;28;20110;-57
2022/03/02 22:35:13;;;;;;;22.17;16.20;;;;;;;-1.06;100.00;96656.13;5023378;28;20091;-59
2022/03/02 22:37:41;;;;;;;23.30;15.65;;;;;;;-1.10;100.00;96650.25;5021151;28;20073;-59
2022/03/02 22:40:11;;;;;;;23.75;15.18;;;;;;;-1.04;100.00;96643.94;5032173;28;20079;-60
2022/03/02 22:42:39;;;;;;;26.05;15.07;;;;;;;-1.01;100.00;96641.22;5024313;28;20061;-61
2022/03/02 22:45:08;;;;;;;21.33;14.57;;;;;;;-1.05;100.00;96642.28;5014740;28;20486;-59
2022/03/02 22:47:36;;;;;;;25.15;15.88;;;;;;;-1.04;100.00;96637.00;5019744;28;20085;-58
2022/03/02 22:50:05;;;;;;;24.85;16.13;;;;;;;-1.30;100.00;96640.78;5036372;28;20088;-61
2022/03/02 22:52:35;;;;;;;21.77;15.13;;;;;;;-1.26;100.00;96634.56;5024518;28;20183;-56
2022/03/02 22:55:07;;;;;;;25.70;15.80;;;;;;;-1.36;100.00;96635.88;5017285;28;20068;-58
2022/03/02 22:57:35;;;;;;;32.42;16.85;;;;;;;-1.43;100.00;96634.47;5015657;28;20076;-58
2022/03/02 23:00:27;;;;;;;22.33;15.93;;;;;;;-1.57;100.00;96636.81;5020117;28;20084;-58
2022/03/02 23:02:57;;;;;;;27.88;16.50;;;;;;;-1.57;100.00;96635.06;5025074;28;20048;-58
2022/03/02 23:16:26;;;;;;;25.38;16.10;;;;;;;-1.48;100.00;96629.50;5019928;28;20587;-56
2022/03/02 23:18:55;;;;;;;25.42;15.98;;;;;;;-1.65;100.00;96631.97;5024107;28;20072;-58
2022/03/02 23:21:24;;;;;;;24.90;16.02;;;;;;;-1.66;100.00;96627.69;5023781;28;20537;-59
2022/03/02 23:23:54;;;;;;;29.83;16.98;;;;;;;-1.55;100.00;96635.00;5028469;28;20175;-60
2022/03/02 23:26:22;;;;;;;26.20;17.20;;;;;;;-1.51;100.00;96626.22;5038524;28;20073;-60
2022/03/02 23:28:50;;;;;;;27.80;17.60;;;;;;;-1.47;100.00;96620.00;5016862;28;21351;-58
2022/03/02 23:31:18;;;;;;;27.48;16.60;;;;;;;-1.46;100.00;96622.50;5020374;28;20088;-60
2022/03/02 23:33:47;;;;;;;28.27;16.63;;;;;;;-1.51;100.00;96623.63;5017363;28;20077;-58
2022/03/02 23:36:15;;;;;;;28.88;17.88;;;;;;;-1.55;100.00;96622.94;5014252;28;20065;-58
2022/03/02 23:38:43;;;;;;;27.73;17.65;;;;;;;-1.54;100.00;96621.19;5021464;28;20143;-59
2022/03/02 23:41:14;;;;;;;30.63;17.10;;;;;;;-1.64;100.00;96619.91;5021446;28;20085;-59
2022/03/02 23:43:42;;;;;;;23.83;17.13;;;;;;;-1.61;100.00;96622.34;5030989;28;20065;-60
2022/03/02 23:46:10;;;;;;;32.80;17.65;;;;;;;-1.59;100.00;96629.09;5037588;28;20560;-59
2022/03/02 23:48:39;;;;;;;27.17;17.35;;;;;;;-1.65;100.00;96633.69;5024775;28;20096;-60
2022/03/02 23:51:07;;;;;;;25.73;16.63;;;;;;;-1.65;100.00;96626.81;5010360;28;20073;-58
2022/03/02 23:53:35;;;;;;;25.77;16.92;;;;;;;-1.88;100.00;96621.78;5015770;28;20073;-60
2022/03/02 23:56:04;;;;;;;24.98;15.43;;;;;;;-1.78;100.00;96618.75;5021101;28;20089;-60
2022/03/02 23:58:33;;;;;;;24.77;16.33;;;;;;;-1.77;100.00;96617.81;5019468;28;20062;-60
